Kezdőlap
METAR-TAF:

METAR-TAF

Repülőterek :

Shearwater, Új-Skócia, Kanada

földrajzi szélesség: 44-38N, földrajzi hosszúság: 063-30W, magasság: 51 m

Jelenlegi meteorológiai megfigyelések

A jelentés 1 órával és 9 perccel ezelõtt készült, 00:00 UTC
Északnyugati szél 17 kt
Hőmérséklet -3°C
Páratartalom 86%
Légköri nyomás 1002 hPa
Látótávolság: 24.1 km
Borult 1300 lábon

METAR: CYAW 290000Z 32017KT 15SM OVC013 M03/M05 A2959 RMK SC8 DA-1652FT LAST OBS/NEXT 290900 UTC SLP023

Idő: 21:09 (01:09 UTC)

Előrejelzés

A jelentés 1 órával és 39 perccel ezelõtt készült, 23:30 UTC
Az előrejelzés 29-én 00 óra UTC és 29-én 06 óra UTC között érvényes
Északnyugati szél 15 kt széllökések: 25 kt
Látótávolság: 10 km
Borult 1500 lábon
29-én 00 óra UTC és 29-én 06 óra UTC között ideiglenes
Látótávolság: 9.7 km
enyhe hózápor

TAF: CYAW 282330Z 2900/2906 32015G25KT P6SM OVC015 TEMPO 2900/2906 6SM -SHSN RMK NXT FCST BY 290600Z

Meteorológiai megfigyelések és előrejelzések több, mint 4000 repülőtéren (METAR és TAF jelentéseket).

A térképen piros és sárga pontok jelzik az elérhető meteorológiai állomásokat.

Mozgassa az egeret a pont fölött, hogy megjelenjen az állomás neve.

Azután kattintson az időjárási megfigyelések és előrejelzések megtekintéséhez.

A térkép megváltoztatása: kattintson a fekete keresztel jelölt zöld gombra ráközelítéshez, a vonallal jelölt zöld gombra távolításhoz, vagy a zöld nyilakra a szomszédos térképek eléréséhez.


METAR-TAF: